Time;durP1;ratioP1;P1;durP2;ratioP2;P2;SDS_P1;SDS_P2;PMS_P1;PMS_P2;Temp;Humidity;BMP_temperature;BMP_pressure;BME280_temperature;BME280_humidity;BME280_pressure;Samples;Min_cycle;Max_cycle;Signal;HPM_P1;HPM_P2
2022/10/21 00:01:38;;;;;;;20.40;9.83;;;;;;;3.58;97.30;100681.28;4205098;28;20272;-70
2022/10/21 00:04:09;;;;;;;20.85;9.90;;;;;;;3.58;97.77;100682.16;4212024;28;20394;-75
2022/10/21 00:06:35;;;;;;;19.47;9.60;;;;;;;3.40;98.33;100678.00;4214300;28;20401;-72
2022/10/21 00:09:02;;;;;;;23.17;9.20;;;;;;;3.43;97.76;100671.72;4214546;28;20255;-71
2022/10/21 00:11:28;;;;;;;19.23;9.30;;;;;;;3.38;98.53;100675.47;4216930;28;21238;-75
2022/10/21 00:13:55;;;;;;;18.03;8.47;;;;;;;3.40;97.88;100666.66;4213984;28;20374;-75
2022/10/21 00:16:22;;;;;;;20.47;9.47;;;;;;;3.44;97.35;100676.03;4214203;28;20450;-72
2022/10/21 00:18:48;;;;;;;21.90;9.23;;;;;;;3.38;98.21;100670.22;4216594;28;20362;-73
2022/10/21 00:21:17;;;;;;;19.30;10.17;;;;;;;3.43;96.84;100666.47;4216807;28;20479;-73
2022/10/21 00:23:44;;;;;;;25.17;10.07;;;;;;;3.32;97.37;100664.47;4238109;28;21145;-75
2022/10/21 00:26:12;;;;;;;23.83;10.13;;;;;;;3.34;98.00;100662.59;4219919;28;20245;-75
2022/10/21 00:28:38;;;;;;;22.23;9.50;;;;;;;3.35;97.57;100670.41;4222430;28;20227;-77
2022/10/21 00:31:07;;;;;;;22.00;10.30;;;;;;;3.50;96.18;100673.03;4216497;28;20299;-74
2022/10/21 00:33:33;;;;;;;21.87;9.67;;;;;;;3.51;96.33;100664.19;4209812;28;26145;-73
2022/10/21 00:36:03;;;;;;;18.80;9.60;;;;;;;3.48;95.58;100664.38;4213563;28;20252;-76
2022/10/21 00:38:31;;;;;;;18.10;9.33;;;;;;;3.55;95.52;100670.97;4213243;28;20277;-77
2022/10/21 00:40:57;;;;;;;23.03;10.10;;;;;;;3.51;95.27;100670.31;4214114;28;20675;-76
2022/10/21 00:43:25;;;;;;;22.50;9.97;;;;;;;3.49;95.35;100660.81;4196012;28;20254;-72
2022/10/21 00:45:57;;;;;;;21.70;10.30;;;;;;;3.42;95.56;100654.22;4211531;28;20231;-74
2022/10/21 00:48:40;;;;;;;27.37;10.83;;;;;;;3.33;95.56;100645.97;4208919;28;20231;-76
2022/10/21 00:51:16;;;;;;;22.77;10.40;;;;;;;3.31;96.51;100647.00;4219889;28;20577;-72
2022/10/21 00:53:45;;;;;;;25.77;10.40;;;;;;;3.30;95.37;100653.19;4218219;28;20242;-75
2022/10/21 00:56:17;;;;;;;26.27;11.90;;;;;;;3.35;95.64;100657.25;4219184;28;20342;-72
2022/10/21 00:58:46;;;;;;;23.77;10.20;;;;;;;3.35;95.23;100659.03;4204457;28;20273;-74
2022/10/21 01:01:13;;;;;;;26.13;11.20;;;;;;;3.34;95.13;100652.91;4220335;28;21165;-72
2022/10/21 01:03:46;;;;;;;28.97;12.50;;;;;;;3.20;95.79;100645.00;4214117;28;20232;-75
2022/10/21 01:06:12;;;;;;;25.23;11.23;;;;;;;3.12;96.50;100648.13;4220105;28;20255;-73
2022/10/21 01:08:39;;;;;;;27.73;12.13;;;;;;;3.10;96.27;100647.34;4203084;28;21949;-77
2022/10/21 01:11:11;;;;;;;27.20;12.70;;;;;;;3.06;96.42;100645.84;4222370;28;22347;-73
2022/10/21 01:13:59;;;;;;;27.73;12.50;;;;;;;2.96;97.05;100649.97;4202497;28;21829;-75
2022/10/21 01:16:35;;;;;;;29.10;12.60;;;;;;;2.94;97.21;100652.69;4204696;28;20231;-72
2022/10/21 01:19:29;;;;;;;29.83;13.90;;;;;;;2.85;97.78;100650.59;4212884;28;20429;-75
2022/10/21 01:22:03;;;;;;;33.07;13.60;;;;;;;2.81;98.02;100638.59;4218564;28;20239;-72
2022/10/21 01:24:55;;;;;;;32.40;13.33;;;;;;;2.79;98.91;100650.13;4226477;28;20304;-78
2022/10/21 01:27:49;;;;;;;32.10;14.33;;;;;;;2.90;97.51;100647.69;4216712;28;20942;-75
2022/10/21 01:30:15;;;;;;;33.00;13.67;;;;;;;2.76;98.12;100648.50;4214907;28;20346;-77
2022/10/21 01:32:46;;;;;;;31.70;13.63;;;;;;;2.82;97.63;100650.78;4217889;28;21354;-75
2022/10/21 01:35:32;;;;;;;31.03;14.47;;;;;;;2.78;98.13;100644.00;4213129;28;20627;-73
2022/10/21 01:38:13;;;;;;;28.90;13.37;;;;;;;2.75;97.43;100629.25;4205176;28;20574;-72
2022/10/21 01:41:02;;;;;;;35.43;14.07;;;;;;;2.67;98.05;100635.91;4214834;28;23465;-74
2022/10/21 01:43:36;;;;;;;30.33;14.23;;;;;;;2.63;97.85;100623.91;4214605;28;20232;-73
2022/10/21 01:46:12;;;;;;;32.00;13.80;;;;;;;2.54;98.10;100615.59;4213655;28;20268;-75
2022/10/21 01:48:42;;;;;;;35.77;13.90;;;;;;;2.59;98.52;100607.44;4217710;28;20305;-76
2022/10/21 01:51:08;;;;;;;33.53;14.20;;;;;;;2.47;98.30;100608.19;4237339;28;20293;-71
2022/10/21 01:53:40;;;;;;;35.73;14.97;;;;;;;2.41;98.49;100601.50;4218409;28;20228;-77
2022/10/21 01:56:08;;;;;;;33.33;14.63;;;;;;;2.41;98.90;100603.25;4206386;28;20232;-74
2022/10/21 01:58:36;;;;;;;31.93;12.93;;;;;;;2.35;98.60;100591.34;4201383;28;20789;-76
2022/10/21 02:01:05;;;;;;;28.60;13.43;;;;;;;2.36;98.65;100592.19;4214879;28;20348;-74
2022/10/21 02:03:35;;;;;;;30.17;13.87;;;;;;;2.37;98.71;100584.22;4200188;28;22215;-74
2022/10/21 02:06:01;;;;;;;31.27;14.07;;;;;;;2.30;98.56;100581.09;4207297;28;21210;-78
2022/10/21 02:08:28;;;;;;;33.17;13.00;;;;;;;2.29;98.63;100578.56;4227451;28;21130;-75
2022/10/21 02:10:57;;;;;;;28.80;13.77;;;;;;;2.32;97.54;100583.66;4220828;28;20239;-75
2022/10/21 02:13:26;;;;;;;31.50;12.93;;;;;;;2.29;98.28;100584.69;4232259;28;20242;-72
2022/10/21 02:15:54;;;;;;;31.83;13.00;;;;;;;2.32;97.91;100578.41;4218428;28;21079;-77
2022/10/21 02:18:23;;;;;;;28.27;12.07;;;;;;;2.29;97.73;100562.81;4230114;28;20404;-73
2022/10/21 02:20:55;;;;;;;29.07;12.87;;;;;;;2.34;97.23;100563.38;4228257;28;20240;-74
2022/10/21 02:23:32;;;;;;;27.60;11.73;;;;;;;2.35;97.40;100562.47;4218072;28;20282;-75
2022/10/21 02:25:59;;;;;;;30.70;13.13;;;;;;;2.30;96.85;100564.50;4215902;28;20491;-73
2022/10/21 02:28:25;;;;;;;35.60;12.80;;;;;;;2.29;97.17;100563.69;4218623;28;20239;-72
2022/10/21 02:30:55;;;;;;;24.87;11.60;;;;;;;2.37;96.64;100544.84;4218301;28;20220;-75
2022/10/21 02:33:29;;;;;;;27.50;12.53;;;;;;;2.44;96.53;100535.66;4202363;28;20236;-76
2022/10/21 02:36:11;;;;;;;24.10;11.20;;;;;;;2.39;96.41;100527.22;4205474;28;20231;-72
2022/10/21 02:38:42;;;;;;;25.07;11.43;;;;;;;2.39;96.02;100518.47;4213648;28;20305;-73
2022/10/21 02:41:10;;;;;;;26.90;11.90;;;;;;;2.36;96.74;100519.50;4219373;28;20242;-72
2022/10/21 02:43:41;;;;;;;25.43;11.90;;;;;;;2.39;96.10;100518.47;4201346;28;21631;-72
2022/10/21 02:46:10;;;;;;;25.70;11.50;;;;;;;2.38;96.04;100524.66;4214213;28;20244;-72
2022/10/21 02:48:38;;;;;;;26.13;11.20;;;;;;;2.42;96.62;100534.91;4219659;28;20312;-74
2022/10/21 02:51:06;;;;;;;23.40;11.10;;;;;;;2.49;95.66;100535.38;4213204;28;20246;-74
2022/10/21 02:53:33;;;;;;;24.47;11.53;;;;;;;2.50;96.03;100519.53;4220068;28;20233;-72
2022/10/21 02:56:00;;;;;;;24.90;11.23;;;;;;;2.44;96.05;100512.03;4215572;28;23708;-71
2022/10/21 02:58:26;;;;;;;28.23;12.07;;;;;;;2.41;96.39;100509.59;4221240;28;20254;-73
2022/10/21 03:00:53;;;;;;;24.73;11.70;;;;;;;2.36;96.81;100513.41;4213486;28;20560;-74
2022/10/21 03:03:20;;;;;;;25.97;12.13;;;;;;;2.47;96.30;100514.47;4214780;28;20303;-71
2022/10/21 03:05:46;;;;;;;29.10;11.40;;;;;;;2.44;96.12;100519.91;4217965;28;24490;-73
2022/10/21 03:08:13;;;;;;;24.37;11.93;;;;;;;2.32;96.48;100505.72;4228069;28;21287;-75
2022/10/21 03:10:40;;;;;;;27.90;12.37;;;;;;;2.32;97.43;100502.25;4208332;28;20227;-74
2022/10/21 03:13:06;;;;;;;27.00;12.23;;;;;;;2.33;96.72;100510.03;4215687;28;20241;-72
2022/10/21 03:15:33;;;;;;;26.70;13.03;;;;;;;2.38;96.38;100515.00;4212569;28;21506;-71
2022/10/21 03:17:59;;;;;;;23.47;11.00;;;;;;;2.41;96.61;100506.09;4217135;28;23456;-73
2022/10/21 03:20:26;;;;;;;26.73;12.00;;;;;;;2.32;96.77;100512.75;4211136;28;20252;-74
2022/10/21 03:22:52;;;;;;;27.30;11.73;;;;;;;2.20;97.45;100495.94;4236058;28;20238;-73
2022/10/21 03:25:18;;;;;;;27.20;12.70;;;;;;;2.17;98.33;100490.84;4229619;28;20313;-72
2022/10/21 03:27:45;;;;;;;28.47;12.23;;;;;;;2.17;98.38;100490.00;4222530;28;20965;-75
2022/10/21 03:30:11;;;;;;;25.40;11.83;;;;;;;2.13;98.01;100484.13;4223049;28;20265;-74
2022/10/21 03:32:38;;;;;;;29.43;12.37;;;;;;;2.09;98.39;100472.94;4219138;28;20639;-73
2022/10/21 03:35:05;;;;;;;28.73;12.63;;;;;;;2.02;98.39;100463.72;4222450;28;20251;-73
2022/10/21 03:37:32;;;;;;;26.53;12.60;;;;;;;2.02;98.80;100461.09;4208693;28;20231;-75
2022/10/21 03:39:58;;;;;;;29.30;12.73;;;;;;;1.99;99.01;100453.41;4220706;28;20236;-71
2022/10/21 03:42:27;;;;;;;23.67;11.30;;;;;;;2.02;98.81;100458.47;4209623;28;20246;-73
2022/10/21 03:44:53;;;;;;;30.37;11.90;;;;;;;2.06;99.04;100462.63;4212945;28;20270;-75
2022/10/21 03:47:20;;;;;;;23.33;11.63;;;;;;;2.08;98.76;100460.75;4231431;28;20322;-72
2022/10/21 03:49:46;;;;;;;29.47;12.50;;;;;;;2.17;99.13;100474.25;4221817;28;20368;-71
2022/10/21 03:52:13;;;;;;;25.80;11.63;;;;;;;2.13;98.32;100468.38;4221092;28;20240;-73
2022/10/21 03:54:39;;;;;;;24.27;11.73;;;;;;;2.11;98.80;100457.94;4205310;28;20241;-72
2022/10/21 03:57:05;;;;;;;28.97;12.27;;;;;;;2.14;98.92;100448.19;4215936;28;20239;-73
2022/10/21 03:59:32;;;;;;;26.53;11.17;;;;;;;2.06;99.82;100469.63;4225689;28;20400;-73
2022/10/21 04:01:58;;;;;;;33.10;12.33;;;;;;;2.07;98.76;100463.47;4218744;28;21069;-73
2022/10/21 04:04:25;;;;;;;26.67;11.80;;;;;;;2.14;98.24;100456.91;4214506;28;20309;-75
2022/10/21 04:06:51;;;;;;;22.80;11.53;;;;;;;2.00;98.41;100452.47;4192308;28;22859;-72
2022/10/21 04:09:18;;;;;;;27.00;11.83;;;;;;;1.92;99.18;100451.22;4213805;28;20238;-73
2022/10/21 04:11:45;;;;;;;30.10;12.57;;;;;;;1.99;98.33;100450.81;4216410;28;21086;-74
2022/10/21 04:14:11;;;;;;;27.47;12.50;;;;;;;1.98;98.18;100458.75;4214509;28;20243;-75
2022/10/21 04:16:41;;;;;;;32.97;12.60;;;;;;;1.98;97.76;100459.59;4209143;28;20269;-73
2022/10/21 04:19:07;;;;;;;26.23;12.07;;;;;;;1.95;97.57;100453.69;4193543;28;20296;-73
2022/10/21 04:21:34;;;;;;;30.20;13.63;;;;;;;1.91;97.57;100447.75;4213422;28;20270;-77
2022/10/21 04:24:01;;;;;;;29.63;12.40;;;;;;;1.81;98.14;100436.13;4209770;28;20278;-74
2022/10/21 04:26:27;;;;;;;29.23;13.20;;;;;;;1.72;98.28;100437.50;4217595;28;20306;-73
2022/10/21 04:28:53;;;;;;;31.17;14.50;;;;;;;1.65;98.74;100444.03;4215531;28;20282;-72
2022/10/21 04:31:20;;;;;;;27.70;13.30;;;;;;;1.77;98.20;100427.56;4210263;28;21099;-74
2022/10/21 04:33:47;;;;;;;28.07;12.83;;;;;;;1.76;97.79;100422.44;4210483;28;20235;-73
2022/10/21 04:36:13;;;;;;;34.80;13.73;;;;;;;1.72;98.89;100415.66;4199369;28;20239;-73
2022/10/21 04:38:40;;;;;;;31.47;14.07;;;;;;;1.61;98.79;100422.34;4219631;28;20245;-71
2022/10/21 04:41:06;;;;;;;36.13;14.00;;;;;;;1.69;98.47;100412.28;4214693;28;20500;-72
2022/10/21 04:43:33;;;;;;;30.77;13.50;;;;;;;1.65;98.75;100416.00;4213572;28;20228;-74
2022/10/21 04:46:00;;;;;;;28.27;13.23;;;;;;;1.71;98.49;100417.44;4217912;28;23093;-71
2022/10/21 04:48:26;;;;;;;30.37;13.80;;;;;;;1.71;98.21;100406.09;4215015;28;20309;-72
2022/10/21 04:50:53;;;;;;;30.97;13.13;;;;;;;1.77;98.37;100408.38;4213675;28;20235;-72
2022/10/21 04:53:21;;;;;;;32.83;13.70;;;;;;;1.77;97.79;100400.50;4208143;28;20233;-75
2022/10/21 04:55:53;;;;;;;28.57;13.13;;;;;;;1.75;97.73;100405.00;4211941;28;23025;-72
2022/10/21 04:58:21;;;;;;;28.40;12.50;;;;;;;1.73;97.88;100402.44;4218979;28;23445;-72
2022/10/21 05:00:49;;;;;;;31.43;12.50;;;;;;;1.76;98.52;100396.19;4217245;28;20227;-75
2022/10/21 05:03:15;;;;;;;26.83;12.47;;;;;;;1.83;97.77;100393.13;4226014;28;21168;-73
2022/10/21 05:05:42;;;;;;;27.80;12.53;;;;;;;1.81;97.68;100384.50;4219805;28;20335;-73
2022/10/21 05:08:09;;;;;;;26.37;12.07;;;;;;;1.84;96.74;100388.72;4218414;28;20405;-76
2022/10/21 05:10:37;;;;;;;25.03;12.47;;;;;;;1.81;97.52;100375.78;4231140;28;20270;-74
2022/10/21 05:13:04;;;;;;;28.50;12.30;;;;;;;1.92;96.94;100381.25;4220807;28;21103;-70
2022/10/21 05:15:32;;;;;;;26.73;11.93;;;;;;;1.96;96.96;100376.66;4217547;28;20269;-68
2022/10/21 05:17:58;;;;;;;26.63;12.13;;;;;;;1.94;96.30;100368.84;4221333;28;20243;-70
2022/10/21 05:20:25;;;;;;;28.87;12.10;;;;;;;1.98;95.93;100359.03;4213052;28;20408;-67
2022/10/21 05:22:52;;;;;;;26.17;12.80;;;;;;;1.89;96.01;100355.16;4253245;28;20491;-69
2022/10/21 05:25:19;;;;;;;28.63;12.03;;;;;;;1.96;95.78;100340.75;4257912;28;21260;-70
2022/10/21 05:27:46;;;;;;;27.67;11.60;;;;;;;1.89;95.70;100336.81;4247248;28;20239;-66
2022/10/21 05:30:13;;;;;;;26.57;11.43;;;;;;;1.90;96.12;100338.50;4275189;28;20426;-68
2022/10/21 05:32:40;;;;;;;28.73;12.07;;;;;;;1.95;95.75;100343.47;4279459;28;21702;-67
2022/10/21 05:35:07;;;;;;;24.57;11.93;;;;;;;1.90;96.32;100341.13;4271517;28;21691;-67
2022/10/21 05:37:34;;;;;;;31.73;12.07;;;;;;;1.91;96.27;100340.19;4248396;28;21300;-66
2022/10/21 05:40:03;;;;;;;27.93;11.30;;;;;;;1.94;95.87;100347.84;4233830;28;20685;-67
2022/10/21 05:42:29;;;;;;;28.60;11.67;;;;;;;2.00;95.57;100339.63;4253700;28;20744;-68
2022/10/21 05:44:56;;;;;;;32.83;11.53;;;;;;;2.05;95.92;100331.47;4259508;28;21052;-69
2022/10/21 05:47:23;;;;;;;23.20;10.67;;;;;;;2.05;94.96;100337.56;4245652;28;20231;-67
2022/10/21 05:49:50;;;;;;;27.60;11.27;;;;;;;2.08;95.38;100345.28;4221520;28;20251;-69
2022/10/21 05:52:16;;;;;;;27.10;11.40;;;;;;;2.14;94.91;100337.97;4223798;28;20458;-67
2022/10/21 05:54:43;;;;;;;24.87;11.03;;;;;;;2.17;93.94;100343.84;4244586;28;20891;-68
2022/10/21 05:57:10;;;;;;;26.23;11.17;;;;;;;2.32;93.56;100337.66;4227167;28;20524;-68
2022/10/21 05:59:36;;;;;;;25.40;11.10;;;;;;;2.31;93.13;100340.38;4224213;28;20291;-70
2022/10/21 06:02:03;;;;;;;26.63;11.37;;;;;;;2.26;93.22;100345.06;4226915;28;20487;-69
2022/10/21 06:04:29;;;;;;;33.30;11.93;;;;;;;2.26;93.59;100347.69;4241971;28;20232;-74
2022/10/21 06:07:04;;;;;;;22.97;10.60;;;;;;;2.32;93.63;100352.59;4247027;28;20231;-69
2022/10/21 06:09:31;;;;;;;21.57;10.20;;;;;;;2.42;92.84;100348.44;4240277;28;20547;-72
2022/10/21 06:11:58;;;;;;;22.97;10.33;;;;;;;2.47;92.55;100341.13;4225482;28;20871;-74
2022/10/21 06:14:25;;;;;;;27.50;10.83;;;;;;;2.45;91.74;100348.25;4242760;28;20709;-66
2022/10/21 06:16:52;;;;;;;26.13;10.50;;;;;;;2.48;91.90;100336.69;4251434;28;23003;-67
2022/10/21 06:19:18;;;;;;;26.37;10.77;;;;;;;2.40;92.31;100338.97;4225913;28;20241;-71
2022/10/21 06:21:46;;;;;;;27.50;12.03;;;;;;;2.40;92.76;100347.69;4225503;28;20235;-69
2022/10/21 06:24:13;;;;;;;25.97;10.87;;;;;;;2.51;92.27;100358.38;4227767;28;20241;-69
2022/10/21 06:26:40;;;;;;;23.07;10.73;;;;;;;2.54;92.33;100354.72;4228526;28;20619;-70
2022/10/21 06:29:06;;;;;;;25.97;10.57;;;;;;;2.48;92.07;100358.59;4232985;28;20226;-68
2022/10/21 06:31:33;;;;;;;29.30;11.90;;;;;;;2.48;92.26;100353.31;4228746;28;20239;-70
2022/10/21 06:34:00;;;;;;;25.70;10.73;;;;;;;2.55;91.84;100353.75;4221181;28;21357;-71
2022/10/21 06:36:27;;;;;;;24.60;10.87;;;;;;;2.52;91.27;100354.81;4213377;28;20250;-75
2022/10/21 06:38:54;;;;;;;27.10;11.10;;;;;;;2.63;91.07;100342.78;4231227;28;21936;-69
2022/10/21 06:41:20;;;;;;;27.27;11.10;;;;;;;2.79;90.52;100346.16;4230915;28;20238;-71
2022/10/21 06:43:47;;;;;;;28.33;10.97;;;;;;;2.74;90.60;100348.22;4232217;28;20346;-68
2022/10/21 06:46:14;;;;;;;22.80;11.20;;;;;;;2.77;89.86;100350.66;4241125;28;20271;-69
2022/10/21 06:48:41;;;;;;;23.07;10.03;;;;;;;2.84;90.43;100349.31;4228821;28;20236;-69
2022/10/21 06:51:19;;;;;;;28.13;10.87;;;;;;;3.07;89.04;100349.63;4221199;28;20334;-68
2022/10/21 06:53:46;;;;;;;34.37;10.67;;;;;;;3.21;88.29;100354.84;4232102;28;25693;-69
2022/10/21 06:56:16;;;;;;;24.77;11.10;;;;;;;3.34;87.05;100352.25;4209191;28;21047;-68
2022/10/21 06:58:46;;;;;;;26.93;10.50;;;;;;;3.37;86.63;100358.16;4243540;28;21224;-69
2022/10/21 07:01:25;;;;;;;25.20;10.47;;;;;;;3.56;87.28;100355.16;4235283;28;20244;-68
2022/10/21 07:04:07;;;;;;;26.67;10.57;;;;;;;3.63;86.44;100363.47;4231080;28;20603;-70
2022/10/21 07:06:34;;;;;;;28.67;10.43;;;;;;;3.64;85.16;100372.22;4233931;28;20233;-69
2022/10/21 07:09:01;;;;;;;26.27;11.17;;;;;;;3.63;85.13;100367.88;4238091;28;20231;-68
2022/10/21 07:11:28;;;;;;;26.37;11.13;;;;;;;3.67;85.12;100364.09;4225029;28;20232;-66
2022/10/21 07:13:55;;;;;;;25.27;10.73;;;;;;;3.72;84.46;100367.25;4228845;28;20243;-70
2022/10/21 07:16:31;;;;;;;24.00;10.90;;;;;;;3.63;84.90;100360.84;4230656;28;20305;-68
2022/10/21 07:18:58;;;;;;;24.83;10.17;;;;;;;3.68;84.63;100366.66;4219151;28;20294;-69
2022/10/21 07:21:28;;;;;;;27.07;11.00;;;;;;;3.69;84.56;100352.53;4232973;28;20785;-68
2022/10/21 07:23:55;;;;;;;24.10;11.23;;;;;;;3.77;84.09;100349.41;4223925;28;21145;-69
2022/10/21 07:26:26;;;;;;;25.60;10.77;;;;;;;3.94;84.34;100337.72;4224271;28;20295;-67
2022/10/21 07:28:54;;;;;;;28.50;11.30;;;;;;;3.94;84.85;100333.28;4216373;28;20231;-71
2022/10/21 07:31:21;;;;;;;21.97;10.70;;;;;;;4.12;83.92;100338.22;4234583;28;20231;-73
2022/10/21 07:33:48;;;;;;;23.43;10.77;;;;;;;4.35;84.04;100334.00;4229197;28;20259;-69
2022/10/21 07:36:22;;;;;;;27.87;13.10;;;;;;;4.59;82.26;100337.56;4227274;28;22283;-73
2022/10/21 07:38:50;;;;;;;22.03;10.80;;;;;;;4.74;82.08;100332.97;4246136;28;20745;-74
2022/10/21 07:41:19;;;;;;;26.00;11.13;;;;;;;5.02;79.13;100341.53;4224004;28;20236;-70
2022/10/21 07:43:46;;;;;;;25.93;10.90;;;;;;;5.32;77.90;100330.53;4222786;28;20237;-76
2022/10/21 07:46:14;;;;;;;21.67;10.43;;;;;;;5.39;77.96;100347.56;4227505;28;20227;-70
2022/10/21 07:48:41;;;;;;;25.27;10.07;;;;;;;5.36;77.71;100337.25;4214152;28;20422;-69
2022/10/21 07:51:09;;;;;;;24.27;9.93;;;;;;;5.21;77.66;100343.66;4220606;28;22903;-71
2022/10/21 07:53:37;;;;;;;19.60;9.90;;;;;;;5.47;78.04;100337.28;4220842;28;22322;-69
2022/10/21 07:56:11;;;;;;;24.70;11.83;;;;;;;5.85;75.68;100328.28;4225683;28;20232;-75
2022/10/21 07:58:37;;;;;;;22.10;10.57;;;;;;;5.97;75.18;100321.25;4215643;28;20265;-68
2022/10/21 08:01:06;;;;;;;24.40;10.97;;;;;;;5.69;76.19;100317.22;4230086;28;20232;-67
2022/10/21 08:03:32;;;;;;;20.53;11.17;;;;;;;5.52;77.09;100305.25;4227112;28;20234;-73
2022/10/21 08:06:01;;;;;;;22.67;10.73;;;;;;;5.35;77.00;100314.44;4233066;28;20242;-71
2022/10/21 08:08:28;;;;;;;26.30;11.00;;;;;;;5.15;78.95;100310.66;4249480;28;20430;-71
2022/10/21 08:10:55;;;;;;;19.37;10.20;;;;;;;5.26;78.44;100309.84;4230604;28;20235;-70
2022/10/21 08:13:22;;;;;;;21.37;10.33;;;;;;;5.30;79.55;100306.03;4229317;28;21998;-71
2022/10/21 08:15:52;;;;;;;22.57;11.00;;;;;;;5.23;78.77;100302.19;4226066;28;21083;-71
2022/10/21 08:18:19;;;;;;;24.57;10.93;;;;;;;5.38;78.67;100308.94;4237427;28;20244;-71
2022/10/21 08:20:47;;;;;;;25.53;10.50;;;;;;;5.64;77.66;100307.00;4246734;28;20231;-78
2022/10/21 08:23:15;;;;;;;21.77;10.70;;;;;;;6.31;76.31;100313.31;4233507;28;20250;-69
2022/10/21 08:25:50;;;;;;;25.73;10.27;;;;;;;7.13;72.33;100315.56;4209232;28;20219;-77
2022/10/21 08:28:16;;;;;;;21.20;10.27;;;;;;;7.03;71.40;100309.38;4221360;28;20879;-70
2022/10/21 08:30:43;;;;;;;25.63;10.53;;;;;;;6.80;72.24;100311.22;4234992;28;20518;-73
2022/10/21 08:33:11;;;;;;;28.57;9.93;;;;;;;6.52;73.11;100298.41;4223090;28;20239;-71
2022/10/21 08:35:38;;;;;;;23.87;10.10;;;;;;;6.46;74.27;100293.63;4224648;28;20411;-74
2022/10/21 08:38:05;;;;;;;21.33;9.97;;;;;;;7.11;72.37;100297.16;4233371;28;20243;-72
2022/10/21 08:40:44;;;;;;;21.87;9.47;;;;;;;7.66;68.84;100298.84;4230711;28;20236;-69
2022/10/21 08:43:32;;;;;;;20.97;9.80;;;;;;;8.03;66.66;100297.41;4207953;28;20596;-69
2022/10/21 08:46:05;;;;;;;20.37;9.73;;;;;;;7.87;66.35;100299.69;4209282;28;21348;-68
2022/10/21 08:48:37;;;;;;;19.93;9.13;;;;;;;7.37;68.63;100294.16;4212679;28;20236;-54
2022/10/21 08:51:05;;;;;;;21.33;9.27;;;;;;;7.10;69.63;100284.91;4224093;28;20244;-69
2022/10/21 08:53:36;;;;;;;22.57;9.97;;;;;;;6.74;71.47;100283.47;4211408;28;20381;-75
2022/10/21 08:56:10;;;;;;;21.17;10.10;;;;;;;6.48;73.58;100278.47;4214984;28;20236;-73
2022/10/21 08:58:46;;;;;;;23.20;10.63;;;;;;;6.39;74.78;100273.06;4208567;28;20244;-75
2022/10/21 09:01:31;;;;;;;18.20;9.30;;;;;;;6.39;74.57;100266.00;4245774;28;20743;-69
2022/10/21 09:04:17;;;;;;;19.67;9.80;;;;;;;6.41;74.74;100260.56;4242816;28;21175;-70
2022/10/21 09:06:57;;;;;;;25.47;10.33;;;;;;;6.41;74.66;100263.22;4245136;28;20238;-71
2022/10/21 09:09:33;;;;;;;20.17;9.60;;;;;;;6.27;75.57;100249.28;4210459;28;20242;-78
2022/10/21 09:12:12;;;;;;;24.43;9.93;;;;;;;6.46;75.92;100243.41;4222401;28;20243;-70
2022/10/21 09:14:53;;;;;;;25.83;9.97;;;;;;;6.76;75.57;100239.22;4234025;28;23043;-69
2022/10/21 09:17:41;;;;;;;19.63;9.33;;;;;;;7.19;72.91;100239.16;4260029;28;20580;-71
2022/10/21 09:20:26;;;;;;;22.17;9.83;;;;;;;7.61;71.17;100230.41;4229664;28;22905;-71
2022/10/21 09:23:15;;;;;;;20.40;9.43;;;;;;;7.90;69.21;100230.53;4254304;28;20226;-69
2022/10/21 09:26:03;;;;;;;22.23;9.50;;;;;;;8.10;69.20;100235.88;4227981;28;20273;-73
2022/10/21 09:28:31;;;;;;;25.97;9.60;;;;;;;7.95;68.42;100236.25;4226937;28;21420;-77
2022/10/21 09:30:59;;;;;;;19.57;9.23;;;;;;;8.10;68.86;100241.19;4227750;28;25309;-70
2022/10/21 09:33:29;;;;;;;19.50;10.13;;;;;;;8.03;68.85;100241.75;4221414;28;20245;-72
2022/10/21 09:36:06;;;;;;;26.87;11.23;;;;;;;8.16;69.22;100241.50;4243515;28;20240;-71
2022/10/21 09:38:54;;;;;;;18.50;9.77;;;;;;;8.28;69.09;100234.28;4232357;28;22243;-71
2022/10/21 09:41:29;;;;;;;23.37;10.37;;;;;;;8.08;69.50;100221.94;4232223;28;20535;-70
2022/10/21 09:43:55;;;;;;;24.03;9.13;;;;;;;8.13;70.32;100219.75;4217011;28;22392;-72
2022/10/21 09:46:22;;;;;;;22.67;8.93;;;;;;;8.38;68.68;100229.88;4232386;28;20735;-76
2022/10/21 09:48:50;;;;;;;23.10;8.93;;;;;;;8.36;68.23;100234.47;4233893;28;22215;-75
2022/10/21 09:51:39;;;;;;;18.80;9.30;;;;;;;8.34;68.09;100222.31;4221452;28;21704;-71
2022/10/21 09:54:21;;;;;;;17.63;8.10;;;;;;;8.47;68.03;100214.97;4207036;28;21020;-73
2022/10/21 09:56:55;;;;;;;15.97;8.47;;;;;;;8.74;67.28;100216.97;4237490;28;21088;-69
2022/10/21 09:59:24;;;;;;;17.60;8.07;;;;;;;8.35;69.11;100216.84;4247583;28;20239;-72
2022/10/21 10:02:05;;;;;;;15.93;8.27;;;;;;;8.52;67.31;100214.53;4238363;28;21131;-75
2022/10/21 10:04:34;;;;;;;22.43;9.47;;;;;;;8.63;66.84;100207.31;4224124;28;20236;-72
2022/10/21 10:07:25;;;;;;;19.73;9.27;;;;;;;8.58;67.09;100211.34;4225705;28;21168;-71
2022/10/21 10:09:52;;;;;;;19.30;8.33;;;;;;;8.79;66.86;100206.75;4223700;28;20228;-71
2022/10/21 10:12:23;;;;;;;22.03;8.67;;;;;;;8.59;66.80;100205.94;4223520;28;20406;-58
2022/10/21 10:14:50;;;;;;;20.33;8.97;;;;;;;8.55;67.61;100209.81;4229862;28;20587;-69
2022/10/21 10:17:30;;;;;;;21.83;8.97;;;;;;;8.90;67.04;100199.63;4215938;28;20266;-58
2022/10/21 10:20:03;;;;;;;20.23;9.13;;;;;;;8.87;66.77;100188.34;4200517;28;20793;-72
2022/10/21 10:22:31;;;;;;;21.93;8.50;;;;;;;8.95;66.96;100189.47;4223202;28;20297;-73
2022/10/21 10:25:11;;;;;;;20.73;8.37;;;;;;;8.88;67.55;100184.69;4232551;28;20233;-70
2022/10/21 10:28:06;;;;;;;15.07;8.37;;;;;;;9.07;66.91;100183.84;4210975;28;20654;-65
2022/10/21 10:30:44;;;;;;;15.33;8.63;;;;;;;9.01;66.93;100180.91;4240610;28;20231;-64
2022/10/21 10:33:24;;;;;;;18.30;8.47;;;;;;;9.29;66.28;100177.41;4210982;28;25835;-66
2022/10/21 10:35:52;;;;;;;22.53;8.63;;;;;;;9.48;65.00;100176.50;4242523;28;20232;-65
2022/10/21 10:38:37;;;;;;;16.70;8.47;;;;;;;9.66;64.88;100173.09;4217504;28;20235;-65
2022/10/21 10:41:14;;;;;;;15.43;8.37;;;;;;;9.61;64.93;100168.22;4249103;28;20232;-64
2022/10/21 10:43:53;;;;;;;16.83;8.20;;;;;;;9.41;65.45;100161.28;4268069;28;20241;-66
2022/10/21 10:46:33;;;;;;;22.80;8.80;;;;;;;9.21;66.54;100153.38;4227348;28;20242;-65
2022/10/21 10:49:16;;;;;;;20.13;7.73;;;;;;;9.51;65.11;100154.97;4214805;28;21176;-65
2022/10/21 10:51:45;;;;;;;17.73;8.40;;;;;;;9.38;65.88;100142.97;4217908;28;20291;-64
2022/10/21 10:54:16;;;;;;;20.60;8.13;;;;;;;9.28;66.37;100149.16;4223553;28;20224;-64
2022/10/21 10:56:58;;;;;;;19.97;8.00;;;;;;;9.19;67.32;100139.41;4219498;28;20232;-62
2022/10/21 10:59:31;;;;;;;18.57;8.00;;;;;;;9.30;67.20;100125.97;4204488;28;20244;-63
2022/10/21 11:02:15;;;;;;;16.57;8.00;;;;;;;9.06;67.17;100118.47;4219449;28;20232;-61
2022/10/21 11:05:07;;;;;;;19.67;8.30;;;;;;;9.27;67.44;100120.94;4233552;28;22683;-66
2022/10/21 11:07:49;;;;;;;18.57;7.97;;;;;;;9.71;66.89;100113.19;4228707;28;20361;-64
2022/10/21 11:10:26;;;;;;;14.13;7.40;;;;;;;9.96;65.04;100110.84;4229364;28;21130;-63
2022/10/21 11:12:53;;;;;;;20.30;8.50;;;;;;;10.22;63.83;100115.44;4212383;28;22290;-64
2022/10/21 11:15:24;;;;;;;18.80;8.00;;;;;;;10.26;62.32;100100.88;4226413;28;20382;-69
2022/10/21 11:17:58;;;;;;;17.40;8.10;;;;;;;10.31;62.53;100101.28;4229548;28;22396;-78
2022/10/21 11:20:50;;;;;;;15.23;7.87;;;;;;;10.08;62.14;100106.16;4242814;28;22645;-70
2022/10/21 11:23:25;;;;;;;16.80;7.27;;;;;;;10.06;63.01;100092.16;4222719;28;20223;-70
2022/10/21 11:26:02;;;;;;;15.77;7.33;;;;;;;10.19;63.36;100100.63;4271595;28;20375;-75
2022/10/21 11:28:33;;;;;;;14.83;7.47;;;;;;;10.51;62.14;100109.91;4254571;28;20247;-73
2022/10/21 11:31:05;;;;;;;14.63;7.23;;;;;;;10.82;61.76;100105.03;4235068;28;22020;-72
2022/10/21 11:33:45;;;;;;;15.80;6.67;;;;;;;10.95;60.21;100104.63;4243369;28;21102;-70
2022/10/21 11:36:23;;;;;;;15.83;7.27;;;;;;;10.87;60.87;100093.94;4233386;28;22765;-70